createdAt,value
2023-07-18T00:00:21.639Z,9.23
2023-07-18T00:02:50.375Z,9.57
2023-07-18T00:05:25.575Z,9.13
2023-07-18T00:07:57.218Z,9.38
2023-07-18T00:10:29.047Z,10.50
2023-07-18T00:12:57.461Z,7.57
2023-07-18T00:15:26.747Z,8.47
2023-07-18T00:17:55.296Z,11.18
2023-07-18T00:20:24.564Z,9.65
2023-07-18T00:22:53.153Z,7.68
2023-07-18T00:25:23.229Z,6.53
2023-07-18T00:27:55.564Z,8.77
2023-07-18T00:30:24.701Z,8.95
2023-07-18T00:32:54.789Z,9.23
2023-07-18T00:35:24.174Z,8.18
2023-07-18T00:37:53.761Z,7.72
2023-07-18T00:40:32.582Z,8.53
2023-07-18T00:43:01.898Z,7.25
2023-07-18T00:45:30.589Z,7.78
2023-07-18T00:47:59.342Z,7.40
2023-07-18T00:50:34.092Z,9.65
2023-07-18T00:53:09.153Z,8.70
2023-07-18T00:56:05.927Z,9.07
2023-07-18T00:59:20.492Z,7.15
2023-07-18T01:02:44.003Z,6.60
2023-07-18T01:05:22.870Z,7.70
2023-07-18T01:07:56.567Z,6.80
2023-07-18T01:10:28.109Z,8.27
2023-07-18T01:13:37.877Z,10.65
2023-07-18T01:16:07.182Z,8.48
2023-07-18T01:18:41.686Z,8.07
2023-07-18T01:21:53.353Z,7.57
2023-07-18T01:25:42.830Z,9.98
2023-07-18T01:27:51.907Z,8.35
2023-07-18T01:30:38.933Z,7.55
2023-07-18T01:36:13.883Z,9.20
2023-07-18T01:44:06.914Z,7.25
2023-07-18T01:51:14.687Z,8.52
2023-07-18T01:53:57.387Z,6.77
2023-07-18T01:57:29.790Z,8.90
2023-07-18T02:00:39.373Z,14.55
2023-07-18T02:17:09.978Z,10.07
2023-07-18T02:20:12.637Z,9.73
2023-07-18T02:22:51.739Z,6.78
2023-07-18T02:25:25.690Z,8.00
2023-07-18T02:28:27.890Z,8.45
2023-07-18T02:31:08.762Z,9.55
2023-07-18T02:43:35.888Z,10.67
2023-07-18T03:01:41.329Z,10.97
2023-07-18T03:26:39.728Z,8.35
2023-07-18T03:34:57.312Z,11.90
2023-07-18T03:38:20.841Z,9.23
2023-07-18T03:40:49.581Z,9.70
2023-07-18T03:43:21.738Z,9.63
2023-07-18T03:46:20.334Z,10.10
2023-07-18T03:49:13.765Z,8.63
2023-07-18T03:52:20.534Z,9.00
2023-07-18T04:06:12.802Z,10.77
2023-07-18T04:17:24.302Z,7.97
2023-07-18T04:20:16.089Z,10.13
2023-07-18T04:23:09.182Z,10.45
2023-07-18T04:26:05.717Z,9.97
2023-07-18T04:32:13.966Z,9.10
2023-07-18T04:35:19.322Z,10.27
2023-07-18T04:40:58.053Z,8.83
2023-07-18T04:44:11.697Z,12.07
2023-07-18T04:54:10.181Z,12.60
2023-07-18T04:56:52.641Z,10.53
2023-07-18T04:59:21.168Z,9.35
2023-07-18T05:01:55.778Z,9.70
2023-07-18T05:04:24.768Z,9.85
2023-07-18T05:06:53.310Z,14.40
2023-07-18T05:09:22.991Z,12.77
2023-07-18T05:11:51.429Z,14.20
2023-07-18T05:14:19.875Z,12.40
2023-07-18T05:16:48.275Z,15.02
2023-07-18T05:19:16.854Z,15.25
2023-07-18T05:21:45.533Z,13.27
2023-07-18T05:24:13.946Z,14.07
2023-07-18T05:27:18.481Z,11.50
2023-07-18T05:30:32.701Z,9.77
2023-07-18T05:33:04.069Z,12.85
2023-07-18T05:47:31.230Z,12.15
2023-07-18T05:51:10.962Z,15.38
2023-07-18T06:23:08.880Z,8.90
2023-07-18T07:04:31.590Z,7.55
2023-07-18T07:07:03.266Z,12.48
2023-07-18T07:09:34.423Z,7.00
2023-07-18T07:12:05.196Z,7.60
2023-07-18T07:14:33.951Z,7.57
2023-07-18T07:17:02.998Z,9.85
2023-07-18T07:19:31.838Z,10.68
2023-07-18T07:22:00.904Z,7.03
2023-07-18T07:24:32.739Z,7.10
2023-07-18T07:27:03.335Z,6.75
2023-07-18T07:29:37.813Z,8.18
2023-07-18T07:32:10.995Z,8.55
2023-07-18T07:35:22.117Z,6.83
2023-07-18T07:38:02.165Z,7.32
2023-07-18T07:40:31.929Z,7.22
2023-07-18T07:43:07.517Z,6.10
2023-07-18T07:45:37.904Z,8.25
2023-07-18T07:48:06.682Z,6.10
2023-07-18T07:50:36.731Z,8.93
2023-07-18T07:53:07.366Z,6.70
2023-07-18T07:55:44.236Z,9.05
2023-07-18T07:58:17.838Z,6.82
2023-07-18T08:03:44.235Z,6.80
2023-07-18T08:06:34.230Z,6.05
2023-07-18T08:09:03.775Z,7.70
2023-07-18T08:11:47.925Z,6.72
2023-07-18T08:14:19.053Z,9.03
2023-07-18T08:16:47.891Z,5.97
2023-07-18T08:19:16.643Z,9.30
2023-07-18T08:21:45.390Z,6.13
2023-07-18T08:33:03.937Z,8.75
2023-07-18T08:36:13.734Z,6.70
2023-07-18T08:38:51.045Z,7.30
2023-07-18T08:41:21.429Z,5.60
2023-07-18T08:43:50.670Z,9.30
2023-07-18T08:49:38.352Z,7.00
2023-07-18T08:52:33.521Z,10.23
2023-07-18T08:55:09.459Z,5.53
2023-07-18T08:58:29.314Z,6.73
2023-07-18T09:01:18.581Z,7.43
2023-07-18T09:15:35.888Z,6.23
2023-07-18T09:37:19.634Z,9.90
2023-07-18T09:39:48.934Z,7.13
2023-07-18T09:42:20.263Z,46.92
2023-07-18T09:44:53.545Z,16.73
2023-07-18T09:47:23.397Z,8.13
2023-07-18T09:53:19.532Z,7.40
2023-07-18T10:00:06.416Z,10.95
2023-07-18T10:02:53.439Z,7.60
2023-07-18T10:05:25.476Z,9.25
2023-07-18T10:07:54.491Z,9.63
2023-07-18T10:10:24.876Z,8.43
2023-07-18T10:13:06.490Z,7.65
2023-07-18T10:16:21.956Z,7.20
2023-07-18T10:19:03.843Z,7.97
2023-07-18T10:32:34.639Z,7.70
2023-07-18T10:35:28.776Z,10.45
2023-07-18T10:38:01.780Z,8.75
2023-07-18T10:40:37.279Z,10.77
2023-07-18T10:43:12.968Z,7.60
2023-07-18T10:45:47.745Z,9.03
2023-07-18T10:51:24.657Z,8.38
2023-07-18T10:53:54.598Z,7.43
2023-07-18T10:56:24.931Z,6.85
2023-07-18T11:00:06.190Z,8.37
2023-07-18T11:03:22.416Z,7.00
2023-07-18T11:06:20.515Z,8.75
2023-07-18T11:09:22.876Z,7.90
2023-07-18T11:51:56.322Z,8.63
2023-07-18T12:16:40.005Z,8.57
2023-07-18T12:20:30.314Z,13.20
2023-07-18T12:26:18.070Z,10.57
2023-07-18T12:29:57.001Z,10.23
2023-07-18T12:32:29.017Z,11.30
2023-07-18T12:36:01.319Z,11.23
2023-07-18T12:42:56.172Z,8.88
2023-07-18T12:45:27.868Z,9.35
2023-07-18T12:47:56.438Z,9.80
2023-07-18T12:57:08.213Z,11.57
2023-07-18T13:00:27.077Z,11.13
2023-07-18T13:02:57.242Z,10.10
2023-07-18T13:05:31.698Z,8.38
2023-07-18T13:08:18.765Z,14.05
2023-07-18T13:10:46.858Z,10.50
2023-07-18T13:13:17.239Z,10.43
2023-07-18T13:15:46.082Z,11.90
2023-07-18T13:18:14.813Z,10.32
2023-07-18T13:20:43.354Z,8.75
2023-07-18T13:23:12.115Z,12.88
2023-07-18T13:25:40.680Z,11.88
2023-07-18T13:28:09.689Z,9.80
2023-07-18T13:30:40.853Z,9.25
2023-07-18T13:33:11.503Z,10.32
2023-07-18T13:35:39.998Z,8.57
2023-07-18T13:38:08.424Z,7.82
2023-07-18T13:40:37.104Z,9.83
2023-07-18T13:43:06.520Z,11.63
2023-07-18T13:45:36.288Z,13.40
2023-07-18T13:48:10.507Z,7.53
2023-07-18T13:50:39.025Z,9.48
2023-07-18T13:53:07.735Z,11.30
2023-07-18T13:55:36.219Z,8.50
2023-07-18T13:58:04.938Z,8.30
2023-07-18T14:00:33.355Z,9.30
2023-07-18T14:03:01.933Z,7.35
2023-07-18T14:05:31.711Z,10.87
2023-07-18T14:08:00.054Z,9.57
2023-07-18T14:10:28.342Z,7.82
2023-07-18T14:12:56.873Z,10.98
2023-07-18T14:15:25.044Z,9.13
2023-07-18T14:17:57.401Z,6.97
2023-07-18T14:20:25.700Z,10.13
2023-07-18T14:22:55.117Z,9.57
2023-07-18T14:25:24.366Z,9.45
2023-07-18T14:27:53.875Z,9.13
2023-07-18T14:30:22.422Z,11.50
2023-07-18T14:32:50.846Z,8.93
2023-07-18T14:35:19.226Z,10.25
2023-07-18T14:37:47.569Z,9.55
2023-07-18T14:40:16.885Z,8.73
2023-07-18T14:42:45.320Z,8.87
2023-07-18T14:45:18.815Z,8.18
2023-07-18T14:47:47.905Z,8.82
2023-07-18T14:50:16.530Z,9.73
2023-07-18T14:52:46.703Z,9.18
2023-07-18T14:55:24.218Z,8.40
2023-07-18T14:57:54.213Z,8.80
2023-07-18T15:00:28.159Z,10.10
2023-07-18T15:02:56.893Z,7.70
2023-07-18T15:05:28.670Z,8.75
2023-07-18T15:08:01.559Z,10.47
2023-07-18T15:10:32.576Z,9.68
2023-07-18T15:13:07.554Z,7.75
2023-07-18T15:15:48.046Z,8.75
2023-07-18T15:18:18.646Z,9.00
2023-07-18T15:20:47.797Z,10.10
2023-07-18T15:23:16.292Z,8.85
2023-07-18T15:25:44.560Z,10.15
2023-07-18T15:28:18.810Z,12.13
2023-07-18T15:30:46.938Z,9.95
2023-07-18T15:33:26.606Z,12.27
2023-07-18T15:35:56.088Z,9.65
2023-07-18T15:38:24.572Z,8.32
2023-07-18T15:40:52.637Z,8.43
2023-07-18T15:43:22.107Z,11.75
2023-07-18T15:45:50.773Z,8.70
2023-07-18T15:48:19.249Z,7.95
2023-07-18T15:50:48.604Z,11.55
2023-07-18T15:53:17.114Z,10.45
2023-07-18T15:55:45.813Z,9.70
2023-07-18T15:58:13.880Z,8.63
2023-07-18T16:00:43.508Z,14.75
2023-07-18T16:03:11.581Z,11.45
2023-07-18T16:05:39.750Z,8.95
2023-07-18T16:08:08.130Z,7.25
2023-07-18T16:10:36.159Z,10.17
2023-07-18T16:13:04.211Z,9.65
2023-07-18T16:15:32.355Z,9.40
2023-07-18T16:18:04.362Z,8.77
2023-07-18T16:20:32.935Z,10.65
2023-07-18T16:23:01.369Z,8.27
2023-07-18T16:25:29.937Z,7.38
2023-07-18T16:27:58.205Z,9.93
2023-07-18T16:30:26.319Z,8.55
2023-07-18T16:32:56.081Z,7.63
2023-07-18T16:35:25.806Z,10.57
2023-07-18T16:37:54.264Z,9.20
2023-07-18T16:40:22.789Z,9.65
2023-07-18T16:42:50.990Z,10.93
2023-07-18T16:45:19.617Z,10.05
2023-07-18T16:47:48.125Z,7.70
2023-07-18T16:50:16.623Z,8.45
2023-07-18T16:52:47.647Z,10.07
2023-07-18T16:55:15.956Z,10.88
2023-07-18T16:57:44.078Z,9.52
2023-07-18T17:00:13.790Z,8.07
2023-07-18T17:02:41.916Z,8.98
2023-07-18T17:05:10.283Z,8.25
2023-07-18T17:07:38.526Z,9.55
2023-07-18T17:10:09.511Z,11.10
2023-07-18T17:12:37.689Z,10.13
2023-07-18T17:15:07.442Z,8.27
2023-07-18T17:17:36.045Z,11.15
2023-07-18T17:20:07.973Z,9.05
2023-07-18T17:22:36.881Z,10.68
2023-07-18T17:25:06.016Z,7.47
2023-07-18T17:27:35.369Z,7.97
2023-07-18T17:30:05.987Z,10.15
2023-07-18T17:32:34.570Z,9.55
2023-07-18T17:35:03.303Z,10.60
2023-07-18T17:37:31.670Z,8.97
2023-07-18T17:40:01.834Z,8.07
2023-07-18T17:42:30.723Z,9.43
2023-07-18T17:45:00.101Z,8.43
2023-07-18T17:47:28.941Z,9.60
2023-07-18T17:49:56.995Z,12.13
2023-07-18T17:52:25.081Z,10.27
2023-07-18T17:54:53.609Z,7.63
2023-07-18T17:57:22.108Z,10.05
2023-07-18T17:59:50.475Z,8.43
2023-07-18T18:02:20.282Z,10.00
2023-07-18T18:04:49.393Z,8.55
2023-07-18T18:07:17.878Z,11.68
2023-07-18T18:09:46.101Z,9.45
2023-07-18T18:12:14.232Z,9.43
2023-07-18T18:14:42.442Z,8.37
2023-07-18T18:17:11.051Z,13.57
2023-07-18T18:19:40.617Z,9.98
2023-07-18T18:22:08.998Z,9.02
2023-07-18T18:24:38.831Z,9.50
2023-07-18T18:27:07.618Z,9.93
2023-07-18T18:29:35.673Z,9.40
2023-07-18T18:32:04.603Z,9.27
2023-07-18T18:34:33.091Z,8.63
2023-07-18T18:37:02.505Z,8.98
2023-07-18T18:39:30.899Z,9.77
2023-07-18T18:41:59.055Z,11.50
2023-07-18T18:44:27.471Z,9.68
2023-07-18T18:46:57.288Z,10.05
2023-07-18T18:49:27.447Z,13.93
2023-07-18T18:51:57.071Z,9.77
2023-07-18T18:54:42.238Z,9.60
2023-07-18T18:57:13.562Z,9.32
2023-07-18T18:59:42.563Z,8.23
2023-07-18T19:02:10.625Z,10.15
2023-07-18T19:04:39.146Z,10.40
2023-07-18T19:07:07.388Z,11.07
2023-07-18T19:09:39.463Z,9.82
2023-07-18T19:12:08.666Z,10.15
2023-07-18T19:14:38.451Z,10.32
2023-07-18T19:17:07.551Z,11.13
2023-07-18T19:19:39.894Z,10.85
2023-07-18T19:22:08.968Z,11.23
2023-07-18T19:24:38.892Z,13.00
2023-07-18T19:27:08.090Z,15.15
2023-07-18T19:29:36.479Z,9.47
2023-07-18T19:32:06.663Z,9.45
2023-07-18T19:34:34.696Z,8.15
2023-07-18T19:37:03.062Z,11.82
2023-07-18T19:39:31.325Z,11.70
2023-07-18T19:42:00.826Z,159.20
2023-07-18T19:44:29.192Z,38.95
2023-07-18T19:46:58.674Z,122.00
2023-07-18T19:49:27.074Z,33.70
2023-07-18T19:51:57.653Z,22.65
2023-07-18T19:54:28.698Z,72.37
2023-07-18T19:56:56.698Z,40.33
2023-07-18T19:59:26.161Z,105.50
2023-07-18T20:01:54.673Z,63.90
2023-07-18T20:04:23.282Z,102.80
2023-07-18T20:06:51.417Z,114.17
2023-07-18T20:09:19.870Z,102.78
2023-07-18T20:11:48.411Z,88.63
2023-07-18T20:14:16.945Z,48.92
2023-07-18T20:20:19.534Z,84.83
2023-07-18T20:22:48.159Z,169.60
2023-07-18T20:25:16.500Z,55.75
2023-07-18T20:27:44.903Z,25.02
2023-07-18T20:30:13.414Z,11.18
2023-07-18T20:32:42.915Z,14.33
2023-07-18T20:35:11.315Z,49.15
2023-07-18T20:37:40.676Z,58.22
2023-07-18T20:40:09.881Z,27.88
2023-07-18T20:42:38.289Z,15.23
2023-07-18T20:45:07.191Z,51.00
2023-07-18T20:47:50.723Z,33.03
2023-07-18T20:50:20.962Z,43.42
2023-07-18T20:52:49.748Z,29.40
2023-07-18T20:55:18.354Z,20.35
2023-07-18T20:57:46.737Z,59.00
2023-07-18T21:00:16.406Z,64.95
2023-07-18T21:02:46.181Z,46.20
2023-07-18T21:05:15.229Z,51.20
2023-07-18T21:07:43.726Z,13.45
2023-07-18T21:10:15.335Z,15.37
2023-07-18T21:12:43.459Z,115.20
2023-07-18T21:15:12.242Z,42.33
2023-07-18T21:17:40.913Z,29.98
2023-07-18T21:20:11.706Z,44.83
2023-07-18T21:22:40.334Z,47.73
2023-07-18T21:25:18.238Z,41.33
2023-07-18T21:27:50.275Z,62.15
2023-07-18T21:30:18.631Z,51.33
2023-07-18T21:32:48.895Z,14.70
2023-07-18T21:35:18.640Z,10.67
2023-07-18T21:37:49.061Z,14.02
2023-07-18T21:40:35.124Z,15.35
2023-07-18T21:43:03.534Z,12.02
2023-07-18T21:45:31.997Z,12.15
2023-07-18T21:48:00.078Z,14.27
2023-07-18T21:50:29.521Z,14.48
2023-07-18T21:52:57.840Z,11.95
2023-07-18T21:55:26.309Z,16.42
2023-07-18T21:57:54.647Z,11.48
2023-07-18T22:00:23.018Z,14.87
2023-07-18T22:02:51.458Z,13.50
2023-07-18T22:05:19.794Z,13.60
2023-07-18T22:07:52.486Z,15.65
2023-07-18T22:10:20.935Z,16.80
2023-07-18T22:12:49.477Z,13.13
2023-07-18T22:15:20.120Z,14.85
2023-07-18T22:17:50.316Z,11.32
2023-07-18T22:20:19.084Z,10.80
2023-07-18T22:22:47.499Z,12.85
2023-07-18T22:25:17.032Z,17.10
2023-07-18T22:27:45.526Z,12.73
2023-07-18T22:30:14.766Z,10.25
2023-07-18T22:32:43.425Z,11.93
2023-07-18T22:35:11.891Z,11.98
2023-07-18T22:37:39.969Z,10.20
2023-07-18T22:40:09.263Z,9.50
2023-07-18T22:42:38.702Z,10.73
2023-07-18T22:45:07.563Z,10.88
2023-07-18T22:47:36.063Z,10.75
2023-07-18T22:50:04.507Z,14.30
2023-07-18T22:52:32.978Z,10.57
2023-07-18T22:55:01.371Z,10.70
2023-07-18T22:57:29.853Z,11.68
2023-07-18T22:59:59.796Z,9.55
2023-07-18T23:02:28.286Z,11.23
2023-07-18T23:04:56.679Z,10.70
2023-07-18T23:07:25.153Z,14.57
2023-07-18T23:09:53.529Z,11.02
2023-07-18T23:12:22.174Z,9.75
2023-07-18T23:14:50.668Z,9.83
2023-07-18T23:17:20.111Z,9.50
2023-07-18T23:19:48.525Z,10.48
2023-07-18T23:22:16.918Z,10.38
2023-07-18T23:24:45.030Z,8.60
2023-07-18T23:27:13.477Z,13.77
2023-07-18T23:29:41.867Z,9.85
2023-07-18T23:32:10.343Z,9.25
2023-07-18T23:34:39.772Z,12.13
2023-07-18T23:37:08.366Z,12.75
2023-07-18T23:39:36.708Z,10.03
2023-07-18T23:42:05.140Z,9.68
2023-07-18T23:44:33.874Z,10.50
2023-07-18T23:47:02.440Z,10.65
2023-07-18T23:49:30.780Z,12.45
2023-07-18T23:52:00.204Z,13.17
2023-07-18T23:54:28.623Z,10.65
2023-07-18T23:56:56.985Z,12.35
2023-07-18T23:59:25.415Z,13.80
